Time;durP1;ratioP1;P1;durP2;ratioP2;P2;SDS_P1;SDS_P2;PMS_P1;PMS_P2;Temp;Humidity;BMP_temperature;BMP_pressure;BME280_temperature;BME280_humidity;BME280_pressure;Samples;Min_cycle;Max_cycle;Signal;HPM_P1;HPM_P2
2022/09/13 00:00:32;;;;;;;;;;;;;;;12.53;85.54;99717.28;4303984;33;35390;-80
2022/09/13 00:03:19;;;;;;;;;;;;;;;13.35;83.24;99720.16;4304311;33;35051;-80
2022/09/13 00:06:11;;;;;;;;;;;;;;;13.75;79.71;99728.16;4293139;33;35782;-80
2022/09/13 00:09:00;;;;;;;;;;;;;;;13.75;78.84;99720.69;4281183;33;35202;-80
2022/09/13 00:11:45;;;;;;;;;;;;;;;13.26;81.01;99721.00;4284682;33;180440;-80
2022/09/13 00:14:31;;;;;;;4.53;2.28;;;;;;;12.29;88.36;99721.28;4291260;33;35137;-80
2022/09/13 00:17:17;;;;;;;4.53;2.50;;;;;;;12.88;85.30;99720.84;4291252;33;34710;-80
2022/09/13 00:20:04;;;;;;;5.68;1.98;;;;;;;13.51;80.30;99732.25;4291174;33;35051;-80
2022/09/13 00:22:50;;;;;;;4.93;2.65;;;;;;;13.49;80.33;99723.53;4291291;33;34698;-80
2022/09/13 00:25:37;;;;;;;6.05;2.05;;;;;;;13.43;80.03;99720.16;4291162;33;34177;-79
2022/09/13 00:28:23;;;;;;;;;;;;;;;12.49;87.53;99719.84;4291415;33;34741;-80
2022/09/13 00:31:10;;;;;;;5.25;2.30;;;;;;;12.68;85.49;99721.50;4291271;33;35312;-80
2022/09/13 00:33:58;;;;;;;3.75;2.00;;;;;;;13.14;82.86;99709.00;4291078;33;34653;-80
2022/09/13 00:36:45;;;;;;;6.03;2.20;;;;;;;13.26;80.54;99714.66;4280231;33;34996;-80
2022/09/13 00:39:32;;;;;;;7.65;2.12;;;;;;;13.26;80.72;99710.00;4280087;33;34576;-80
2022/09/13 00:42:27;;;;;;;3.03;1.80;;;;;;;13.13;81.97;99712.91;4290933;33;35961;-79
2022/09/13 00:45:17;;;;;;;4.37;2.28;;;;;;;13.08;81.66;99711.13;4280144;33;34682;-80
2022/09/13 00:48:05;;;;;;;5.10;2.10;;;;;;;12.93;82.05;99715.19;4291099;33;35154;-80
2022/09/13 00:50:54;;;;;;;4.72;2.00;;;;;;;13.00;81.65;99718.22;4290856;33;34713;-80
2022/09/13 00:53:43;;;;;;;2.42;1.87;;;;;;;12.88;82.30;99712.59;4291075;33;35014;-80
2022/09/13 00:56:35;;;;;;;3.95;2.15;;;;;;;12.98;80.93;99715.03;4290989;33;34844;-80
2022/09/13 00:59:25;;;;;;;3.75;2.10;;;;;;;12.85;82.10;99712.44;4279897;33;35291;-80
2022/09/13 01:02:12;;;;;;;3.70;1.90;;;;;;;12.70;82.86;99711.00;4279898;33;35612;-80
2022/09/13 01:04:58;;;;;;;10.10;2.28;;;;;;;12.64;83.75;99720.53;4280122;33;35017;-80
2022/09/13 01:07:45;;;;;;;4.62;2.22;;;;;;;12.20;85.28;99716.91;4290962;33;34770;-80
2022/09/13 01:10:34;;;;;;;4.43;2.30;;;;;;;12.15;85.33;99721.44;4290938;33;34204;-80
2022/09/13 01:13:23;;;;;;;5.05;2.17;;;;;;;12.33;84.99;99714.03;4290925;33;34716;-80
2022/09/13 01:16:09;;;;;;;3.75;2.10;;;;;;;12.72;81.80;99716.97;4279910;33;35883;-80
2022/09/13 01:18:55;;;;;;;3.30;2.17;;;;;;;12.73;81.77;99713.09;4291014;33;34758;-80
2022/09/13 01:22:23;;;;;;;3.95;2.17;;;;;;;12.78;80.70;99718.44;4290800;33;35054;-80
2022/09/13 01:25:16;;;;;;;3.90;1.87;;;;;;;12.73;81.53;99713.09;4276462;33;35761;-80
2022/09/13 01:28:30;;;;;;;3.50;2.08;;;;;;;12.69;80.99;99710.16;4276503;33;35096;-80
2022/09/13 01:31:53;;;;;;;4.05;2.17;;;;;;;12.62;81.56;99709.03;4265544;33;35562;-80
2022/09/13 01:35:18;;;;;;;4.97;1.90;;;;;;;12.60;80.36;99709.34;4275486;33;35125;-80
2022/09/13 01:38:10;;;;;;;3.80;2.30;;;;;;;12.54;80.92;99711.44;4272351;33;35502;-79
2022/09/13 01:41:12;;;;;;;6.07;2.60;;;;;;;12.56;79.96;99706.44;4276373;33;36042;-80
2022/09/13 01:44:34;;;;;;;6.07;2.30;;;;;;;12.53;79.85;99707.09;4276328;33;35550;-81
2022/09/13 01:47:48;;;;;;;4.07;2.20;;;;;;;12.31;80.53;99709.97;4265529;33;34209;-81
2022/09/13 01:50:45;;;;;;;3.40;1.90;;;;;;;12.24;82.12;99704.97;4265205;33;34644;-79
2022/09/13 01:53:52;;;;;;;3.25;2.08;;;;;;;12.31;82.16;99701.72;4265501;33;35090;-80
2022/09/13 01:56:44;;;;;;;3.83;2.20;;;;;;;12.44;81.56;99694.50;4276212;33;35806;-80
2022/09/13 01:59:46;;;;;;;2.72;1.70;;;;;;;12.43;80.78;99690.91;4265461;33;35191;-80
2022/09/13 02:02:41;;;;;;;4.53;2.00;;;;;;;12.34;80.30;99693.66;4275317;33;34588;-80
2022/09/13 02:06:07;;;;;;;5.25;2.17;;;;;;;12.19;80.31;99694.13;4276102;33;36084;-80
2022/09/13 02:08:56;;;;;;;4.72;2.20;;;;;;;12.31;80.82;99688.00;4265429;33;35395;-81
2022/09/13 02:11:45;;;;;;;5.03;2.45;;;;;;;12.30;81.34;99686.38;4275164;33;35090;-81
2022/09/13 02:14:35;;;;;;;4.25;2.22;;;;;;;12.33;80.96;99691.25;4275068;33;35537;-80
2022/09/13 02:17:23;;;;;;;4.90;2.00;;;;;;;12.36;80.34;99688.66;4265339;33;35943;-80
2022/09/13 02:20:23;;;;;;;3.35;1.70;;;;;;;12.02;83.01;99685.84;4275128;33;34812;-80
2022/09/13 02:23:15;;;;;;;3.20;1.83;;;;;;;12.27;80.76;99684.28;4265142;33;34212;-80
2022/09/13 02:26:03;;;;;;;3.70;2.10;;;;;;;12.37;80.26;99683.97;4265022;33;34714;-81
2022/09/13 02:28:52;;;;;;;4.35;2.40;;;;;;;12.22;81.04;99681.69;4276072;33;35892;-81
2022/09/13 02:31:57;;;;;;;4.53;2.10;;;;;;;12.25;80.53;99675.56;4264953;33;34614;-80
2022/09/13 02:34:57;;;;;;;3.12;1.90;;;;;;;11.82;83.84;99676.22;4275207;33;35266;-80
2022/09/13 02:37:47;;;;;;;3.47;2.20;;;;;;;11.45;85.65;99681.91;4265315;33;34734;-81
2022/09/13 02:40:39;;;;;;;3.92;2.30;;;;;;;10.65;89.48;99683.66;4265147;33;34967;-81
2022/09/13 02:43:30;;;;;;;5.03;2.40;;;;;;;11.23;87.73;99684.69;4265079;33;34766;-80
2022/09/13 02:46:37;;;;;;;;;;;;;;;11.97;82.84;99675.00;4265324;33;35114;-81
2022/09/13 02:49:38;;;;;;;4.80;2.45;;;;;;;12.12;81.09;99667.13;4275961;33;35789;-80
2022/09/13 02:52:36;;;;;;;2.87;1.87;;;;;;;12.03;81.79;99671.78;4265168;33;35027;-79
2022/09/13 02:56:01;;;;;;;3.42;2.20;;;;;;;12.19;80.97;99668.59;4264954;33;34809;-81
2022/09/13 02:59:16;;;;;;;4.32;2.20;;;;;;;12.00;81.87;99664.19;4261530;33;34376;-80
2022/09/13 03:02:24;;;;;;;4.12;2.08;;;;;;;12.13;81.27;99667.94;4264743;33;35469;-81
2022/09/13 03:05:10;;;;;;;5.97;1.98;;;;;;;12.25;80.31;99665.37;4264792;33;34959;-80
2022/09/13 03:07:57;;;;;;;2.97;2.03;;;;;;;12.07;81.68;99664.53;4264715;33;34564;-81
2022/09/13 03:11:04;;;;;;;4.35;2.10;;;;;;;12.09;80.79;99654.03;4265009;33;34261;-81
2022/09/13 03:14:27;;;;;;;7.12;2.30;;;;;;;12.03;80.61;99652.56;4275770;33;35504;-81
2022/09/13 03:17:24;;;;;;;5.32;2.50;;;;;;;12.16;79.25;99650.81;4275639;33;34996;-81
2022/09/13 03:20:39;;;;;;;4.72;2.47;;;;;;;11.87;81.40;99648.66;4264745;33;34602;-81
2022/09/13 03:23:40;;;;;;;4.90;2.50;;;;;;;11.32;83.99;99647.12;4264727;33;34199;-81
2022/09/13 03:26:43;;;;;;;6.47;3.10;;;;;;;9.46;99.55;99659.06;4264642;33;34786;-81
2022/09/13 03:29:51;;;;;;;7.68;3.67;;;;;;;10.47;95.78;99652.56;4274689;33;35059;-81
2022/09/13 03:32:57;;;;;;;6.72;3.20;;;;;;;9.19;100.00;99646.16;4264659;33;33364;-81
2022/09/13 03:35:50;;;;;;;5.32;2.97;;;;;;;10.51;95.75;99647.28;4264477;33;34207;-81
2022/09/13 03:39:08;;;;;;;3.87;2.33;;;;;;;11.00;92.38;99648.25;4264441;33;35660;-80
2022/09/13 03:42:04;;;;;;;5.68;2.50;;;;;;;11.57;86.98;99642.06;4274248;33;35906;-81
2022/09/13 03:44:52;;;;;;;5.97;2.60;;;;;;;11.55;86.84;99641.56;4264815;33;34671;-81
2022/09/13 03:47:41;;;;;;;5.72;2.80;;;;;;;11.22;87.96;99637.25;4266206;33;34316;-81
2022/09/13 03:50:27;;;;;;;6.95;2.90;;;;;;;10.38;92.99;99642.66;4276043;33;33620;-81
2022/09/13 03:53:19;;;;;;;4.55;3.22;;;;;;;11.12;90.04;99639.44;4266155;33;35965;-81
2022/09/13 03:56:16;;;;;;;3.92;2.50;;;;;;;8.85;100.00;99641.84;4266055;33;34862;-81
2022/09/13 03:59:02;;;;;;;7.25;3.33;;;;;;;8.96;100.00;99637.81;4266166;33;34277;-81
2022/09/13 04:01:48;;;;;;;5.82;3.28;;;;;;;8.93;100.00;99632.94;4276847;33;34610;-81
2022/09/13 04:04:34;;;;;;;7.45;3.10;;;;;;;9.48;100.00;99636.84;4276937;33;36022;-81
2022/09/13 04:07:22;;;;;;;6.72;2.85;;;;;;;8.36;100.00;99639.59;4276982;33;34836;-81
2022/09/13 04:10:09;;;;;;;4.40;2.60;;;;;;;9.79;100.00;99640.63;4265945;33;35192;-80
2022/09/13 04:12:59;;;;;;;4.82;2.60;;;;;;;10.02;97.39;99641.50;4276839;33;34733;-81
2022/09/13 04:15:45;;;;;;;6.10;2.65;;;;;;;10.54;96.39;99641.97;4276777;33;36075;-81
2022/09/13 04:18:31;;;;;;;3.00;2.25;;;;;;;10.52;96.07;99646.94;4276889;33;34657;-81
2022/09/13 04:21:18;;;;;;;5.03;2.72;;;;;;;11.06;92.60;99654.41;4276207;33;35197;-81
2022/09/13 04:24:04;;;;;;;5.30;2.97;;;;;;;11.22;90.78;99645.47;4276076;33;35508;-81
2022/09/13 04:26:52;;;;;;;7.53;2.70;;;;;;;11.33;90.25;99650.69;4266358;33;35027;-81
2022/09/13 04:29:38;;;;;;;4.60;2.80;;;;;;;11.31;90.39;99648.25;4266127;33;35508;-83
2022/09/13 04:32:24;;;;;;;5.75;2.95;;;;;;;11.44;89.33;99654.75;4275862;33;35137;-83
2022/09/13 04:35:10;;;;;;;5.65;2.97;;;;;;;11.19;91.08;99651.59;4277151;33;34782;-83
2022/09/13 04:37:57;;;;;;;5.28;2.80;;;;;;;11.25;91.25;99650.34;4266736;33;35914;-83
2022/09/13 04:40:42;;;;;;;7.10;3.60;;;;;;;11.05;92.21;99656.34;4277212;33;34775;-84
2022/09/13 04:43:29;;;;;;;7.18;3.00;;;;;;;10.27;96.23;99647.53;4278332;33;35099;-83
2022/09/13 04:46:16;;;;;;;7.18;3.25;;;;;;;10.52;95.78;99648.88;4278734;33;35633;-82
2022/09/13 04:49:02;;;;;;;9.13;3.17;;;;;;;10.47;96.27;99649.00;4267335;33;35461;-82
2022/09/13 04:51:49;;;;;;;6.20;3.00;;;;;;;10.23;98.94;99647.31;4277927;33;35834;-83
2022/09/13 04:54:35;;;;;;;5.90;3.55;;;;;;;10.42;96.28;99658.16;4277890;33;35353;-83
2022/09/13 04:57:21;;;;;;;5.78;3.30;;;;;;;8.29;100.00;99650.87;4276630;33;34753;-82
2022/09/13 05:00:08;;;;;;;6.43;3.08;;;;;;;9.61;100.00;99647.81;4277509;33;35240;-84
2022/09/13 05:02:55;;;;;;;7.80;3.03;;;;;;;9.69;100.00;99654.50;4266937;33;34687;-83
2022/09/13 05:05:42;;;;;;;8.38;3.25;;;;;;;9.40;100.00;99658.34;4288069;33;33527;-80
2022/09/13 05:08:28;;;;;;;6.75;3.47;;;;;;;8.52;100.00;99651.94;4299521;33;35482;-81
2022/09/13 05:11:15;;;;;;;5.03;3.33;;;;;;;9.41;100.00;99656.41;4282439;33;34966;-84
2022/09/13 05:14:01;;;;;;;6.47;3.28;;;;;;;10.18;100.00;99652.91;4293623;33;35463;-84
2022/09/13 05:16:47;;;;;;;6.85;3.12;;;;;;;10.70;100.00;99649.81;4269161;33;33643;-83
2022/09/13 05:19:34;;;;;;;5.28;2.70;;;;;;;10.60;100.00;99650.09;4282300;33;34564;-87
2022/09/13 05:22:20;;;;;;;7.50;3.05;;;;;;;11.33;96.50;99657.00;4283246;33;35575;-87
2022/09/13 05:25:07;;;;;;;6.37;2.90;;;;;;;11.38;96.51;99662.31;4276710;33;35486;-88
2022/09/13 05:27:53;;;;;;;5.22;2.75;;;;;;;11.48;96.14;99664.00;4267249;33;33608;-86
2022/09/13 05:30:39;;;;;;;4.10;2.80;;;;;;;11.46;95.93;99655.25;4276429;33;35539;-86
2022/09/13 05:33:30;;;;;;;6.95;3.28;;;;;;;11.22;96.62;99661.94;4269677;33;35014;-87
2022/09/13 05:36:16;;;;;;;8.10;3.28;;;;;;;10.33;100.00;99662.72;4282439;33;34771;-86
2022/09/13 05:39:04;;;;;;;7.32;3.08;;;;;;;9.66;100.00;99661.38;4279517;33;34074;-86
2022/09/13 05:42:10;;;;;;;4.90;3.00;;;;;;;11.10;99.64;99661.72;4273276;33;34201;-87
2022/09/13 05:44:56;;;;;;;7.53;3.50;;;;;;;11.51;97.07;99655.12;4264529;33;34562;-90
2022/09/13 05:47:42;;;;;;;9.55;2.97;;;;;;;11.98;95.24;99658.22;4273881;33;34922;-89
2022/09/13 05:50:29;;;;;;;7.40;2.87;;;;;;;11.38;97.13;99664.25;4276102;33;34355;-91
2022/09/13 05:53:39;;;;;;;6.80;3.10;;;;;;;11.86;95.19;99664.31;4279485;33;35734;-90
2022/09/13 05:56:28;;;;;;;7.13;3.30;;;;;;;10.31;100.00;99660.31;4267171;33;35300;-90
2022/09/13 05:59:14;;;;;;;9.73;3.45;;;;;;;11.12;100.00;99666.88;4278713;33;35139;-90
2022/09/13 06:02:01;;;;;;;14.32;4.40;;;;;;;11.13;100.00;99669.31;4276283;33;34152;-90
2022/09/13 06:04:49;;;;;;;7.22;2.95;;;;;;;11.53;96.76;99669.34;4269724;33;34353;-90
2022/09/13 06:07:38;;;;;;;11.82;3.03;;;;;;;11.57;97.96;99667.56;4269499;33;35956;-86
2022/09/13 06:10:24;;;;;;;9.63;3.45;;;;;;;11.56;98.76;99671.47;4270649;33;34688;-85
2022/09/13 06:13:10;;;;;;;7.03;3.15;;;;;;;11.54;99.63;99678.38;4273600;33;35168;-84
2022/09/13 06:15:58;;;;;;;7.55;2.83;;;;;;;12.44;93.05;99670.56;4283184;33;35569;-86
2022/09/13 06:18:44;;;;;;;4.00;2.50;;;;;;;11.81;97.77;99667.19;4283487;33;36031;-83
2022/09/13 06:21:31;;;;;;;5.45;2.58;;;;;;;12.76;93.72;99662.97;4283921;33;34772;-79
2022/09/13 06:24:17;;;;;;;6.75;2.60;;;;;;;12.88;90.68;99657.59;4284603;33;33791;-80
2022/09/13 06:27:04;;;;;;;6.03;2.62;;;;;;;13.12;89.53;99664.50;4289215;33;35676;-81
2022/09/13 06:29:50;;;;;;;4.65;2.55;;;;;;;12.78;92.49;99667.00;4290386;33;36042;-82
2022/09/13 06:32:36;;;;;;;4.30;2.50;;;;;;;12.74;94.14;99660.53;4293744;33;34730;-83
2022/09/13 06:35:22;;;;;;;3.92;2.33;;;;;;;13.91;88.78;99665.84;4283022;33;34064;-83
2022/09/13 06:38:09;;;;;;;4.60;2.30;;;;;;;14.26;86.08;99668.38;4293236;33;34605;-83
2022/09/13 06:41:09;;;;;;;5.30;2.62;;;;;;;14.48;86.69;99653.47;4269305;33;34522;-85
2022/09/13 06:43:57;;;;;;;4.70;2.33;;;;;;;14.52;86.30;99660.78;4279511;33;34876;-86
2022/09/13 06:46:43;;;;;;;4.82;1.95;;;;;;;14.51;83.45;99659.13;4264623;33;35347;-87
2022/09/13 06:49:30;;;;;;;5.40;2.75;;;;;;;14.60;82.96;99664.63;4288746;33;34636;-85
2022/09/13 06:52:17;;;;;;;4.20;2.00;;;;;;;14.71;80.81;99653.97;4296256;33;35016;-86
2022/09/13 06:55:03;;;;;;;5.25;2.00;;;;;;;15.00;80.14;99653.84;4289656;33;34623;-82
2022/09/13 06:57:49;;;;;;;6.10;1.90;;;;;;;15.47;80.35;99661.75;4290959;33;32953;-84
2022/09/13 07:00:35;;;;;;;4.85;1.75;;;;;;;15.17;80.36;99661.16;4284779;33;35653;-86
2022/09/13 07:03:22;;;;;;;4.97;1.70;;;;;;;15.35;76.48;99663.72;4287508;33;36188;-84
2022/09/13 07:06:22;;;;;;;6.12;2.42;;;;;;;15.74;78.39;99668.63;4277856;33;34423;-84
2022/09/13 07:09:14;;;;;;;5.00;1.77;;;;;;;16.13;77.07;99671.81;4278168;33;34227;-85
2022/09/13 07:12:01;;;;;;;5.18;1.87;;;;;;;16.11;73.63;99670.56;4289817;33;34121;-81
2022/09/13 07:14:47;;;;;;;3.03;1.67;;;;;;;16.25;70.55;99679.31;4278693;33;34438;-87
2022/09/13 07:17:33;;;;;;;3.97;1.77;;;;;;;16.53;68.13;99676.56;4279598;33;34673;-86
2022/09/13 07:20:19;;;;;;;2.87;1.80;;;;;;;16.51;65.78;99665.06;4292118;33;34794;-85
2022/09/13 07:23:06;;;;;;;4.30;2.08;;;;;;;16.75;66.08;99664.19;4293698;33;35532;-91
2022/09/13 07:25:54;;;;;;;4.95;2.05;;;;;;;16.69;65.29;99670.31;4288790;33;35018;-88
2022/09/13 07:28:42;;;;;;;4.40;1.50;;;;;;;17.10;65.35;99682.97;4280247;33;35613;-83
2022/09/13 07:31:36;;;;;;;4.00;1.92;;;;;;;16.99;65.97;99677.16;4287089;33;34131;-80
2022/09/13 07:34:24;;;;;;;3.78;1.85;;;;;;;17.26;63.70;99674.69;4281814;33;35629;-80
2022/09/13 07:37:12;;;;;;;5.40;1.60;;;;;;;16.90;63.67;99673.72;4282787;33;36066;-80
2022/09/13 07:39:59;;;;;;;2.78;1.70;;;;;;;17.23;63.78;99672.63;4296798;33;34840;-83
2022/09/13 07:42:45;;;;;;;3.30;1.70;;;;;;;17.64;62.18;99676.88;4292306;33;34883;-83
2022/09/13 07:45:32;;;;;;;2.78;1.70;;;;;;;18.09;61.18;99672.84;4300560;33;35623;-89
2022/09/13 07:48:18;;;;;;;8.57;2.20;;;;;;;17.43;61.83;99677.12;4282745;33;35013;-89
2022/09/13 07:51:12;;;;;;;7.07;2.10;;;;;;;17.48;60.63;99668.56;4289715;33;34437;-85
2022/09/13 07:54:00;;;;;;;4.87;1.62;;;;;;;18.31;60.88;99681.66;4276060;33;34126;-87
2022/09/13 07:56:49;;;;;;;7.62;2.30;;;;;;;18.26;59.37;99677.19;4277328;33;35526;-81
2022/09/13 07:59:37;;;;;;;7.03;2.60;;;;;;;17.93;56.87;99678.41;4271734;33;34900;-83
2022/09/13 08:02:23;;;;;;;6.43;2.28;;;;;;;18.19;60.49;99677.84;4286651;33;34751;-87
2022/09/13 08:05:10;;;;;;;4.90;2.33;;;;;;;18.25;57.12;99677.56;4292372;33;34806;-86
2022/09/13 08:07:56;;;;;;;9.40;2.70;;;;;;;18.84;57.22;99680.06;4286829;33;34563;-80
2022/09/13 08:10:42;;;;;;;7.53;2.30;;;;;;;17.88;61.29;99681.47;4285368;33;36049;-80
2022/09/13 08:13:34;;;;;;;5.50;2.97;;;;;;;18.27;62.15;99686.31;4290199;33;34752;-85
2022/09/13 08:16:22;;;;;;;4.80;2.28;;;;;;;18.04;58.22;99677.84;4283754;33;34853;-86
2022/09/13 08:19:12;;;;;;;6.45;2.42;;;;;;;18.52;60.06;99681.31;4274486;33;35461;-85
2022/09/13 08:21:58;;;;;;;6.40;2.90;;;;;;;18.72;57.30;99674.59;4279034;33;35996;-83
2022/09/13 08:24:44;;;;;;;5.03;2.83;;;;;;;19.22;57.19;99686.75;4288219;33;34475;-80
2022/09/13 08:27:30;;;;;;;7.18;2.75;;;;;;;19.10;55.92;99684.12;4291292;33;34232;-80
2022/09/13 08:30:16;;;;;;;7.43;3.35;;;;;;;19.13;56.89;99675.06;4292594;33;34706;-79
2022/09/13 08:33:03;;;;;;;6.18;2.75;;;;;;;19.43;56.29;99679.97;4286565;33;34957;-84
2022/09/13 08:35:51;;;;;;;5.47;2.72;;;;;;;19.86;54.19;99672.38;4292105;33;34910;-86
2022/09/13 08:38:37;;;;;;;6.35;2.80;;;;;;;19.71;56.16;99674.13;4292528;33;34088;-83
2022/09/13 08:41:31;;;;;;;5.30;2.47;;;;;;;20.15;53.79;99676.41;4289412;33;34766;-83
2022/09/13 08:44:25;;;;;;;6.03;2.60;;;;;;;20.53;51.85;99671.81;4279528;33;34681;-83
2022/09/13 08:47:18;;;;;;;5.75;2.42;;;;;;;19.97;52.57;99674.16;4274070;33;33473;-84
2022/09/13 08:50:18;;;;;;;7.03;2.75;;;;;;;19.22;54.46;99675.63;4280769;33;34197;-86
2022/09/13 08:53:27;;;;;;;5.30;2.97;;;;;;;19.01;55.53;99669.66;4282884;33;34600;-83
2022/09/13 08:56:35;;;;;;;6.75;2.78;;;;;;;18.72;55.91;99671.84;4274484;33;36057;-83
2022/09/13 08:59:34;;;;;;;9.10;2.15;;;;;;;18.97;53.87;99657.69;4276330;33;34324;-82
2022/09/13 09:02:47;;;;;;;3.97;2.17;;;;;;;19.73;52.93;99666.22;4284149;33;34229;-83
2022/09/13 09:05:46;;;;;;;9.63;2.65;;;;;;;20.52;52.66;99657.06;4296281;33;34679;-83
2022/09/13 09:08:57;;;;;;;7.22;2.87;;;;;;;19.52;49.28;99666.63;4276823;33;36009;-83
2022/09/13 09:12:06;;;;;;;6.80;2.53;;;;;;;19.40;51.89;99650.16;4277179;33;34608;-81
2022/09/13 09:14:59;;;;;;;5.78;2.47;;;;;;;20.89;50.27;99659.94;4288939;33;34150;-82
2022/09/13 09:18:02;;;;;;;;;;;;;;;21.59;47.98;99651.91;4280548;33;34224;-83
2022/09/13 09:20:49;;;;;;;;;;;;;;;19.74;50.70;99660.28;4280142;33;35253;-85
2022/09/13 09:23:39;;;;;;;;;;;;;;;19.50;52.55;99661.47;4290091;33;34124;-82
2022/09/13 09:26:30;;;;;;;;;;;;;;;19.72;50.96;99647.94;4268861;33;34547;-85
2022/09/13 09:29:19;;;;;;;;;;;;;;;19.28;50.58;99646.38;4281034;33;34751;-90
2022/09/13 09:32:29;;;;;;;;;;;;;;;19.21;50.94;99642.66;4279865;33;35271;-86
2022/09/13 09:35:26;;;;;;;;;;;;;;;19.36;48.83;99635.41;4296673;33;36021;-87
2022/09/13 09:38:35;;;;;;;4.43;2.17;;;;;;;20.30;46.76;99633.72;4287179;33;34143;-86
2022/09/13 09:41:25;;;;;;;;;;;;;;;20.38;48.96;99629.06;4271371;33;34555;-84
2022/09/13 09:44:22;;;;;;;;;;;;;;;21.29;45.11;99630.53;4276269;33;35382;-82
2022/09/13 09:47:19;;;;;;;5.62;1.87;;;;;;;21.68;45.75;99632.88;4272211;33;35436;-80
2022/09/13 09:50:17;;;;;;;4.37;2.12;;;;;;;22.54;44.95;99629.84;4279255;33;35066;-80
2022/09/13 09:53:14;;;;;;;6.07;2.80;;;;;;;20.80;45.63;99626.00;4278444;33;34791;-81
2022/09/13 09:56:23;;;;;;;7.65;2.90;;;;;;;21.66;42.92;99614.91;4266039;33;33547;-84
2022/09/13 09:59:27;;;;;;;7.03;3.45;;;;;;;22.26;44.64;99603.41;4282175;33;33424;-81
2022/09/13 10:02:16;;;;;;;7.83;2.83;;;;;;;22.30;42.35;99600.62;4280908;33;34230;-86
2022/09/13 10:05:05;;;;;;;5.70;2.53;;;;;;;22.84;43.09;99602.44;4286834;33;34769;-83
2022/09/13 10:08:04;;;;;;;6.57;2.42;;;;;;;23.93;39.91;99604.94;4283744;33;34518;-83
2022/09/13 10:10:52;;;;;;;7.32;2.22;;;;;;;23.92;37.82;99597.75;4271022;33;35171;-81
2022/09/13 10:13:56;;;;;;;5.60;2.40;;;;;;;24.33;38.80;99593.62;4284216;33;35030;-82
2022/09/13 10:16:43;;;;;;;3.47;2.00;;;;;;;23.69;37.98;99589.75;4269697;33;35507;-82
2022/09/13 10:19:31;;;;;;;6.97;2.33;;;;;;;24.28;38.98;99589.28;4287455;33;35041;-82
2022/09/13 10:22:17;;;;;;;3.67;2.20;;;;;;;24.31;38.67;99585.66;4285059;33;35216;-82
2022/09/13 10:25:30;;;;;;;;;;;;;;;24.02;39.25;99596.94;4289644;33;35143;-83
2022/09/13 10:28:17;;;;;;;5.50;2.15;;;;;;;22.81;40.75;99586.47;4283806;33;35413;-82
2022/09/13 10:31:09;;;;;;;6.57;2.67;;;;;;;24.54;37.59;99578.81;4289867;33;34200;-82
2022/09/13 10:34:04;;;;;;;9.18;2.87;;;;;;;24.52;38.18;99578.41;4278508;33;34338;-81
2022/09/13 10:36:53;;;;;;;4.82;2.40;;;;;;;22.59;40.12;99562.44;4289272;33;35282;-81
2022/09/13 10:39:52;;;;;;;6.00;2.45;;;;;;;22.17;41.07;99569.41;4274961;33;35572;-82
2022/09/13 10:42:39;;;;;;;10.68;3.08;;;;;;;22.29;40.49;99565.53;4289892;33;35932;-83
2022/09/13 10:45:28;;;;;;;4.72;2.10;;;;;;;23.88;39.30;99565.38;4275885;33;35508;-82
2022/09/13 10:48:15;;;;;;;;;;;;;;;25.58;33.48;99571.28;4283818;33;35116;-83
2022/09/13 10:51:06;;;;;;;;;;;;;;;23.87;35.28;99569.38;4284591;33;34886;-83
2022/09/13 10:54:10;;;;;;;;;;;;;;;24.83;34.53;99571.03;4278308;33;34674;-82
2022/09/13 10:56:56;;;;;;;;;;;;;;;25.73;33.84;99571.19;4293804;33;36307;-82
2022/09/13 10:59:51;;;;;;;6.23;2.30;;;;;;;25.58;33.22;99571.28;4273737;33;34638;-83
2022/09/13 11:02:40;;;;;;;;;;;;;;;25.22;33.72;99558.81;4275010;33;34289;-83
2022/09/13 11:05:33;;;;;;;;;;;;;;;24.64;36.85;99564.72;4285280;33;36245;-83
2022/09/13 11:08:25;;;;;;;;;;;;;;;23.09;37.06;99563.41;4276841;33;34849;-82
2022/09/13 11:11:17;;;;;;;;;;;;;;;23.25;36.65;99553.81;4273012;33;34203;-82
2022/09/13 11:14:26;;;;;;;13.40;3.10;;;;;;;23.35;37.27;99556.63;4288559;33;35901;-82
2022/09/13 11:17:22;;;;;;;4.12;2.53;;;;;;;23.81;37.22;99559.81;4286078;33;34111;-81
2022/09/13 11:20:17;;;;;;;3.15;1.90;;;;;;;22.87;38.15;99556.94;4292275;33;34870;-81
2022/09/13 11:23:09;;;;;;;5.22;1.75;;;;;;;23.61;35.43;99560.19;4275157;33;34040;-81
2022/09/13 11:25:58;;;;;;;;;;;;;;;23.29;37.64;99549.03;4287264;33;34763;-81
2022/09/13 11:28:53;;;;;;;;;;;;;;;24.50;34.85;99553.59;4290560;33;35338;-81
2022/09/13 11:31:43;;;;;;;;;;;;;;;24.11;34.36;99551.75;4285827;33;35097;-81
2022/09/13 11:34:41;;;;;;;;;;;;;;;24.17;34.58;99547.31;4283458;33;34311;-82
2022/09/13 11:37:43;;;;;;;;;;;;;;;24.20;35.82;99543.69;4282435;33;34518;-81
2022/09/13 11:40:57;;;;;;;19.02;3.55;;;;;;;23.06;37.34;99535.47;4286590;33;36239;-81
2022/09/13 11:44:02;;;;;;;;;;;;;;;24.63;35.91;99537.13;4279873;33;34555;-81
2022/09/13 11:46:54;;;;;;;;;;;;;;;24.37;38.27;99524.44;4288234;33;33285;-82
2022/09/13 11:49:59;;;;;;;;;;;;;;;22.37;39.74;99526.09;4276959;33;34805;-84
2022/09/13 11:53:00;;;;;;;;;;;;;;;22.08;42.25;99527.13;4298065;33;36018;-83
2022/09/13 11:55:48;;;;;;;;;;;;;;;22.47;38.19;99518.94;4295147;33;35822;-84
2022/09/13 11:58:42;;;;;;;;;;;;;;;22.73;38.38;99517.81;4277632;33;34116;-84
2022/09/13 12:01:39;;;;;;;;;;;;;;;22.92;37.40;99513.06;4292020;33;34935;-83
2022/09/13 12:04:30;;;;;;;;;;;;;;;23.52;35.71;99512.28;4272843;33;35341;-82
2022/09/13 12:07:29;;;;;;;2.30;1.48;;;;;;;23.56;36.16;99518.66;4275367;33;34965;-87
2022/09/13 12:10:29;;;;;;;3.08;1.62;;;;;;;23.32;36.82;99515.50;4289502;33;35214;-79
2022/09/13 12:13:20;;;;;;;3.97;1.58;;;;;;;23.67;36.37;99513.84;4280465;33;35500;-82
2022/09/13 12:16:10;;;;;;;6.00;1.70;;;;;;;24.95;36.15;99511.69;4281782;33;34564;-81
2022/09/13 12:18:59;;;;;;;3.63;2.07;;;;;;;24.22;34.80;99509.72;4275436;33;33326;-80
2022/09/13 12:21:45;;;;;;;;;;;;;;;22.11;37.32;99498.44;4274278;33;33893;-80
2022/09/13 12:24:37;;;;;;;;;;;;;;;23.36;36.74;99509.88;4278022;33;34908;-81
2022/09/13 12:27:35;;;;;;;3.10;1.42;;;;;;;23.06;37.19;99501.94;4272711;33;35215;-81
2022/09/13 12:30:35;;;;;;;3.33;2.03;;;;;;;24.10;36.35;99490.56;4274006;33;33950;-81
2022/09/13 12:33:22;;;;;;;3.42;2.17;;;;;;;24.57;34.33;99497.56;4277521;33;33119;-81
2022/09/13 12:36:44;;;;;;;3.53;2.05;;;;;;;24.09;36.88;99488.97;4289777;33;34769;-81
2022/09/13 12:40:10;;;;;;;5.50;2.30;;;;;;;23.41;39.01;99494.72;4277699;33;35149;-82
2022/09/13 12:42:59;;;;;;;;;;;;;;;22.82;39.61;99497.87;4288334;33;35490;-80
2022/09/13 12:45:49;;;;;;;;;;;;;;;23.54;39.10;99487.50;4276677;33;32854;-81
2022/09/13 12:48:53;;;;;;;;;;;;;;;24.38;38.00;99484.81;4287280;33;35810;-80
2022/09/13 12:51:42;;;;;;;;;;;;;;;25.22;35.17;99474.69;4275870;33;36049;-80
2022/09/13 12:54:31;;;;;;;;;;;;;;;23.27;40.47;99479.53;4290792;33;35830;-80
2022/09/13 12:57:24;;;;;;;;;;;;;;;22.86;40.19;99481.94;4294531;33;32805;-79
2022/09/13 13:00:12;;;;;;;;;;;;;;;21.62;42.10;99486.66;4274423;33;35802;-80
2022/09/13 13:03:13;;;;;;;3.28;1.23;;;;;;;22.73;39.46;99478.72;4276808;33;34925;-80
2022/09/13 13:06:17;;;;;;;;;;;;;;;22.79;38.54;99470.72;4277746;33;34569;-84
2022/09/13 13:09:27;;;;;;;3.03;1.55;;;;;;;23.50;37.71;99475.53;4290200;33;34101;-84
2022/09/13 13:12:35;;;;;;;3.60;1.90;;;;;;;23.02;40.74;99467.56;4288006;33;33706;-83
2022/09/13 13:15:24;;;;;;;2.58;1.90;;;;;;;23.94;39.52;99471.44;4277558;33;35170;-86
2022/09/13 13:18:27;;;;;;;3.47;1.90;;;;;;;22.31;41.40;99468.25;4290929;33;33840;-83
2022/09/13 13:21:34;;;;;;;3.10;1.80;;;;;;;23.59;40.85;99459.13;4281025;33;33335;-81
2022/09/13 13:24:20;;;;;;;3.40;1.90;;;;;;;23.24;40.03;99469.16;4286556;33;33838;-82
2022/09/13 13:27:33;;;;;;;;;;;;;;;24.40;36.86;99465.63;4288638;33;35807;-84
2022/09/13 13:30:41;;;;;;;;;;;;;;;23.85;37.17;99462.66;4288264;33;35150;-83
2022/09/13 13:33:28;;;;;;;;;;;;;;;23.55;37.96;99455.53;4294346;33;34966;-83
2022/09/13 13:36:26;;;;;;;4.03;1.60;;;;;;;23.13;38.99;99468.37;4282052;33;34956;-80
2022/09/13 13:39:22;;;;;;;;;;;;;;;24.34;37.65;99444.06;4277066;33;34948;-81
2022/09/13 13:42:12;;;;;;;;;;;;;;;25.04;35.83;99446.78;4287946;33;34902;-79
2022/09/13 13:44:58;;;;;;;;;;;;;;;24.17;37.53;99452.16;4273148;33;34145;-84
2022/09/13 13:48:06;;;;;;;1.55;1.15;;;;;;;23.55;38.87;99444.34;4286374;33;35805;-83
2022/09/13 13:51:14;;;;;;;3.40;1.58;;;;;;;23.56;38.57;99440.34;4285681;33;34856;-83